createdAt,value
2019-05-12T00:05:13.353Z,10.70
2019-05-12T00:11:17.834Z,10.60
2019-05-12T00:17:19.465Z,10.60
2019-05-12T00:23:27.524Z,10.70
2019-05-12T00:29:25.615Z,10.80
2019-05-12T00:35:28.486Z,10.80
2019-05-12T00:41:30.857Z,10.90
2019-05-12T00:47:33.484Z,11.00
2019-05-12T00:53:40.158Z,11.00
2019-05-12T00:59:39.651Z,11.00
2019-05-12T01:05:41.771Z,11.00
2019-05-12T01:11:43.992Z,11.00
2019-05-12T01:17:47.797Z,11.00
2019-05-12T01:23:56.325Z,11.00
2019-05-12T01:29:54.224Z,11.00
2019-05-12T01:35:58.615Z,11.00
2019-05-12T01:42:00.567Z,10.80
2019-05-12T01:48:02.863Z,10.60
2019-05-12T01:54:11.738Z,10.60
2019-05-12T02:00:10.575Z,10.60
2019-05-12T02:06:12.823Z,10.60
2019-05-12T02:12:14.952Z,10.70
2019-05-12T02:18:17.815Z,10.90
2019-05-12T02:24:26.833Z,10.90
2019-05-12T02:30:24.061Z,10.90
2019-05-12T02:36:34.127Z,10.70
2019-05-12T02:42:35.967Z,10.70
2019-05-12T02:48:38.325Z,10.70
2019-05-12T02:54:51.895Z,10.70
2019-05-12T03:00:45.578Z,10.70
2019-05-12T03:06:47.933Z,10.80
2019-05-12T03:12:50.145Z,10.80
2019-05-12T03:18:55.140Z,10.70
2019-05-12T03:25:08.099Z,10.60
2019-05-12T03:31:00.406Z,10.60
2019-05-12T03:37:07.613Z,10.60
2019-05-12T03:43:06.728Z,10.60
2019-05-12T03:49:08.999Z,10.60
2019-05-12T03:55:27.339Z,10.50
2019-05-12T04:01:15.401Z,10.50
2019-05-12T04:07:17.524Z,10.50
2019-05-12T04:13:20.035Z,10.60
2019-05-12T04:19:24.700Z,10.80
2019-05-12T04:25:44.820Z,10.70
2019-05-12T04:31:30.393Z,10.70
2019-05-12T04:37:35.195Z,10.70
2019-05-12T04:43:36.602Z,10.70
2019-05-12T04:49:41.621Z,10.70
2019-05-12T04:55:44.575Z,10.70
2019-05-12T05:01:47.117Z,10.70
2019-05-12T05:07:49.440Z,10.70
2019-05-12T05:13:54.591Z,10.80
2019-05-12T05:19:55.643Z,10.80
2019-05-12T05:25:57.765Z,10.80
2019-05-12T05:32:00.047Z,10.80
2019-05-12T05:38:04.325Z,10.80
2019-05-12T05:44:06.453Z,10.80
2019-05-12T05:50:08.565Z,10.80
2019-05-12T05:56:39.896Z,10.80
2019-05-12T06:02:40.199Z,10.80
2019-05-12T06:08:38.327Z,10.80
2019-05-12T06:14:40.969Z,10.90
2019-05-12T06:20:43.830Z,11.00
2019-05-12T06:26:56.669Z,11.00
2019-05-12T06:32:51.888Z,11.00
2019-05-12T06:38:54.263Z,10.90
2019-05-12T06:44:58.162Z,11.00
2019-05-12T06:51:00.531Z,11.10
2019-05-12T06:57:18.656Z,11.20
2019-05-12T07:03:07.035Z,11.30
2019-05-12T07:09:15.247Z,11.20
2019-05-12T07:15:14.380Z,11.10
2019-05-12T07:21:20.219Z,11.00
2019-05-12T07:27:33.747Z,11.10
2019-05-12T07:33:25.210Z,11.10
2019-05-12T07:39:28.146Z,11.10
2019-05-12T07:45:30.884Z,11.20
2019-05-12T07:51:38.273Z,11.30
2019-05-12T07:57:51.992Z,11.40
2019-05-12T08:03:43.693Z,11.60
2019-05-12T08:09:46.101Z,12.00
2019-05-12T08:15:51.329Z,12.40
2019-05-12T08:21:53.707Z,12.70
2019-05-12T08:28:11.033Z,12.70
2019-05-12T08:34:00.115Z,12.40
2019-05-12T08:40:07.491Z,12.10
2019-05-12T08:46:12.150Z,12.00
2019-05-12T08:52:14.057Z,11.90
2019-05-12T08:58:30.186Z,11.50
2019-05-12T09:04:20.003Z,11.10
2019-05-12T09:10:23.488Z,11.10
2019-05-12T09:16:26.092Z,11.00
2019-05-12T09:22:28.657Z,10.90
2019-05-12T09:28:44.423Z,10.60
2019-05-12T09:34:35.285Z,10.40
2019-05-12T09:40:37.871Z,10.50
2019-05-12T09:46:40.165Z,10.30
2019-05-12T09:52:44.119Z,10.20
2019-05-12T09:58:58.200Z,10.50
2019-05-12T10:04:55.588Z,10.80
2019-05-12T10:10:54.551Z,11.00
2019-05-12T10:16:56.816Z,10.60
2019-05-12T10:22:59.151Z,10.60
2019-05-12T10:29:14.179Z,10.60
2019-05-12T10:35:12.521Z,10.50
2019-05-12T10:41:13.426Z,10.50
2019-05-12T10:47:15.719Z,10.70
2019-05-12T10:53:18.078Z,10.70
2019-05-12T10:59:30.260Z,10.80
2019-05-12T11:05:26.101Z,10.90
2019-05-12T11:11:32.828Z,11.10
2019-05-12T11:23:59.515Z,11.40
2019-05-12T11:30:04.122Z,11.40
2019-05-12T11:36:06.250Z,11.50
2019-05-12T11:42:08.556Z,11.50
2019-05-12T11:48:10.931Z,11.50
2019-05-12T11:54:13.697Z,11.70
2019-05-12T12:00:17.940Z,11.60
2019-05-12T12:06:20.193Z,11.60
2019-05-12T12:12:24.227Z,11.80
2019-05-12T12:18:26.525Z,11.90
2019-05-12T12:24:31.414Z,12.10
2019-05-12T12:30:33.947Z,12.30
2019-05-12T12:36:36.528Z,12.60
2019-05-12T12:42:44.231Z,12.80
2019-05-12T12:48:43.941Z,12.80
2019-05-12T12:54:46.335Z,12.50
2019-05-12T13:00:53.752Z,12.20
2019-05-12T13:06:54.424Z,12.10
2019-05-12T13:13:00.977Z,12.00
2019-05-12T13:19:06.135Z,12.10
2019-05-12T13:25:08.759Z,12.10
2019-05-12T13:31:15.310Z,12.00
2019-05-12T13:37:19.420Z,11.90
2019-05-12T13:43:23.744Z,11.90
2019-05-12T13:49:30.096Z,11.80
2019-05-12T13:55:29.807Z,11.80
2019-05-12T14:01:40.146Z,11.60
2019-05-12T14:07:36.143Z,11.60
2019-05-12T14:13:38.393Z,11.40
2019-05-12T14:19:40.585Z,11.40
2019-05-12T14:25:43.743Z,11.30
2019-05-12T14:31:54.497Z,11.30
2019-05-12T14:37:50.395Z,11.10
2019-05-12T14:43:53.611Z,11.00
2019-05-12T14:49:56.598Z,11.00
2019-05-12T14:55:58.774Z,11.00
2019-05-12T15:02:05.507Z,11.00
2019-05-12T15:08:05.060Z,11.00
2019-05-12T15:14:07.364Z,10.90
2019-05-12T15:20:10.816Z,10.90
2019-05-12T15:26:15.737Z,10.80
2019-05-12T15:32:17.684Z,10.70
2019-05-12T15:38:19.937Z,10.70
2019-05-12T15:44:31.151Z,10.80
2019-05-12T15:50:26.759Z,10.80
2019-05-12T15:56:29.815Z,10.60
2019-05-12T16:02:33.983Z,10.50
2019-05-12T16:08:36.122Z,10.50
2019-05-12T16:14:41.104Z,10.30
2019-05-12T16:20:44.189Z,10.20
2019-05-12T16:26:51.748Z,10.20
2019-05-12T16:32:50.640Z,10.20
2019-05-12T16:38:58.476Z,10.10
2019-05-12T16:45:05.984Z,10.10
2019-05-12T16:51:05.856Z,10.00
2019-05-12T16:57:12.899Z,10.00
2019-05-12T17:03:14.237Z,9.90
2019-05-12T17:09:16.244Z,9.70
2019-05-12T17:15:18.732Z,9.70
2019-05-12T17:21:20.927Z,9.70
2019-05-12T17:27:27.291Z,9.70
2019-05-12T17:33:28.532Z,9.70
2019-05-12T17:39:35.587Z,9.60
2019-05-12T17:45:34.747Z,9.60
2019-05-12T17:51:36.929Z,9.60
2019-05-12T17:57:39.197Z,9.40
2019-05-12T18:03:48.640Z,9.40
2019-05-12T18:09:50.644Z,9.40
2019-05-12T18:15:50.019Z,9.30
2019-05-12T18:21:54.846Z,9.40
2019-05-12T18:27:56.561Z,9.50
2019-05-12T18:33:58.911Z,9.50
2019-05-12T18:40:01.126Z,9.50
2019-05-12T18:46:08.753Z,9.50
2019-05-12T18:52:23.439Z,9.50
2019-05-12T18:58:30.589Z,9.50
2019-05-12T19:04:33.982Z,9.50
2019-05-12T19:10:38.704Z,9.50
2019-05-12T19:16:37.838Z,9.50
2019-05-12T19:22:48.105Z,9.50
2019-05-12T19:28:53.183Z,9.50
2019-05-12T19:34:51.148Z,9.40
2019-05-12T19:41:00.806Z,9.40
2019-05-12T19:47:00.351Z,9.50
2019-05-12T19:53:05.287Z,9.50
2019-05-12T19:59:10.437Z,9.50
2019-05-12T20:05:17.596Z,9.40
2019-05-12T20:11:26.518Z,9.40
2019-05-12T20:17:26.401Z,9.40
2019-05-12T20:23:28.852Z,9.40
2019-05-12T20:29:33.588Z,9.30
2019-05-12T20:35:39.303Z,9.30
2019-05-12T20:41:40.020Z,9.40
2019-05-12T20:47:45.153Z,9.50
2019-05-12T20:53:46.383Z,9.50
2019-05-12T20:59:48.642Z,9.50
2019-05-12T21:05:56.785Z,9.40
2019-05-12T21:11:55.020Z,9.40
2019-05-12T21:18:02.586Z,9.30
2019-05-12T21:24:01.458Z,9.30
2019-05-12T21:30:11.847Z,9.40
2019-05-12T21:36:16.709Z,9.40
2019-05-12T21:42:16.430Z,9.40
2019-05-12T21:48:23.616Z,9.40
2019-05-12T21:54:24.191Z,9.40
2019-05-12T22:00:34.727Z,9.40
2019-05-12T22:06:37.089Z,9.40
2019-05-12T22:12:40.450Z,9.40
2019-05-12T22:18:43.725Z,9.30
2019-05-12T22:24:46.097Z,9.30
2019-05-12T22:30:48.423Z,9.30
2019-05-12T22:36:57.177Z,9.30
2019-05-12T22:43:01.129Z,9.30
2019-05-12T22:49:00.899Z,9.40
2019-05-12T22:55:03.669Z,9.30
2019-05-12T23:01:06.226Z,9.20
2019-05-12T23:07:08.428Z,9.20
2019-05-12T23:13:10.704Z,9.20
2019-05-12T23:19:14.941Z,9.10
2019-05-12T23:25:21.357Z,9.10
2019-05-12T23:31:26.100Z,9.10
2019-05-12T23:37:30.272Z,9.00
2019-05-12T23:43:31.155Z,9.00
2019-05-12T23:49:33.885Z,8.90
2019-05-12T23:55:36.016Z,8.80
